Terminal Aerodrome Forecast
Issued by NWS

Home | Current Version | Previous Version | Text Only | Print | Product List | Glossary On
Versions: 1 2 3 4 5 6 7 8 9 10 11 12 13 14
000
FTUS46 KSTO 311100
TAFMHR
TAF
KMHR 311120Z 3112/0112 VRB04KT P6SM SKC
     FM311800 33009G18KT P6SM SKC
     FM010100 VRB04KT P6SM SKC
      AMD NOT SKED=

USA.gov is the U.S. government's official web portal to all federal, state and local government web resources and services.